Time;durP1;ratioP1;P1;durP2;ratioP2;P2;SDS_P1;SDS_P2;PMS_P1;PMS_P2;Temp;Humidity;BMP_temperature;BMP_pressure;BME280_temperature;BME280_humidity;BME280_pressure;Samples;Min_cycle;Max_cycle;Signal;HPM_P1;HPM_P2
2021/07/07 00:00:08;;;;;;;11.53;6.87;;;;;;;24.65;47.73;95040.25;5089974;28;20202;-75
2021/07/07 00:02:35;;;;;;;9.17;6.90;;;;;;;24.66;47.65;95039.91;5089669;28;20718;-72
2021/07/07 00:05:03;;;;;;;13.10;7.40;;;;;;;24.67;47.57;95016.56;5089434;28;20758;-73
2021/07/07 00:07:33;;;;;;;10.03;6.83;;;;;;;24.78;47.47;95029.16;5071318;28;20332;-75
2021/07/07 00:10:05;;;;;;;12.87;7.57;;;;;;;24.03;48.81;95040.72;5072019;28;20370;-75
2021/07/07 00:12:32;;;;;;;13.63;7.50;;;;;;;24.47;48.29;95036.28;5072037;28;20214;-76
2021/07/07 00:14:59;;;;;;;10.87;7.37;;;;;;;24.47;48.23;95045.06;5064125;28;20234;-73
2021/07/07 00:17:26;;;;;;;9.07;7.10;;;;;;;24.46;48.84;95038.16;5079818;28;20972;-74
2021/07/07 00:19:53;;;;;;;11.30;7.20;;;;;;;24.34;49.12;95046.25;5089818;28;20740;-76
2021/07/07 00:22:20;;;;;;;11.37;7.57;;;;;;;24.12;49.04;95027.19;5090045;28;20592;-74
2021/07/07 00:24:47;;;;;;;10.30;6.90;;;;;;;24.20;49.50;95055.72;5089318;28;20558;-72
2021/07/07 00:27:14;;;;;;;14.67;6.80;;;;;;;23.83;49.54;95052.28;5089867;28;20198;-73
2021/07/07 00:29:42;;;;;;;7.53;6.40;;;;;;;23.97;49.60;95040.13;5090028;28;20183;-73
2021/07/07 00:32:11;;;;;;;10.53;7.57;;;;;;;24.22;48.17;95045.47;5091511;28;20329;-73
2021/07/07 00:34:38;;;;;;;13.03;7.53;;;;;;;24.09;48.71;95039.34;5089086;28;20202;-73
2021/07/07 00:37:05;;;;;;;10.20;7.03;;;;;;;24.06;49.15;95045.38;5086331;28;20577;-74
2021/07/07 00:39:31;;;;;;;12.50;7.90;;;;;;;24.00;49.03;95044.00;5077945;28;20680;-72
2021/07/07 00:41:58;;;;;;;10.83;7.80;;;;;;;24.05;49.08;95043.81;5091102;28;20222;-74
2021/07/07 00:44:25;;;;;;;12.53;7.30;;;;;;;23.98;49.00;95038.22;5093327;28;20286;-76
2021/07/07 00:46:52;;;;;;;8.70;6.90;;;;;;;23.98;49.31;95051.59;5079809;28;20208;-74
2021/07/07 00:49:19;;;;;;;10.77;6.80;;;;;;;23.80;49.66;95048.38;5077461;28;20233;-75
2021/07/07 00:51:47;;;;;;;9.13;7.40;;;;;;;23.80;50.06;95037.66;5093116;28;20202;-72
2021/07/07 00:54:15;;;;;;;9.33;7.70;;;;;;;23.84;49.89;95048.47;5093291;28;20198;-70
2021/07/07 00:56:43;;;;;;;10.37;7.20;;;;;;;24.10;48.84;95046.28;5093547;28;20191;-71
2021/07/07 00:59:10;;;;;;;10.90;7.07;;;;;;;23.98;49.05;95032.84;5092608;28;20649;-74
2021/07/07 01:01:40;;;;;;;8.03;7.33;;;;;;;24.03;48.65;95048.75;5085419;28;20605;-76
2021/07/07 01:04:07;;;;;;;8.57;6.80;;;;;;;23.92;49.10;95051.03;5099329;28;20203;-70
2021/07/07 01:06:34;;;;;;;9.40;7.57;;;;;;;23.90;49.07;95047.16;5102428;28;20198;-76
2021/07/07 01:09:03;;;;;;;8.10;7.00;;;;;;;23.84;49.08;95051.16;5101532;28;20642;-76
2021/07/07 01:11:33;;;;;;;11.97;7.13;;;;;;;23.89;49.15;95056.28;5079572;28;20187;-78
2021/07/07 01:14:00;;;;;;;7.60;6.90;;;;;;;23.68;48.63;95050.25;5093085;28;20196;-75
2021/07/07 01:16:28;;;;;;;8.47;6.67;;;;;;;23.83;48.49;95057.63;5087575;28;20275;-74
2021/07/07 01:18:56;;;;;;;7.63;6.80;;;;;;;23.42;49.96;95052.44;5083053;28;20191;-74
2021/07/07 01:21:23;;;;;;;7.83;7.03;;;;;;;23.42;49.87;95053.25;5092772;28;20222;-74
2021/07/07 01:23:51;;;;;;;7.83;7.03;;;;;;;23.38;50.25;95059.56;5094528;28;20958;-75
2021/07/07 01:26:19;;;;;;;10.50;7.50;;;;;;;23.36;49.95;95061.78;5092846;28;20210;-73
2021/07/07 01:28:46;;;;;;;10.53;7.37;;;;;;;23.57;49.40;95043.78;5092546;28;20200;-78
2021/07/07 01:31:13;;;;;;;7.47;6.40;;;;;;;23.58;49.64;95045.34;5092179;28;20233;-76
2021/07/07 01:33:40;;;;;;;9.37;7.07;;;;;;;23.35;49.36;95036.19;5092709;28;20240;-78
2021/07/07 01:36:07;;;;;;;7.80;6.73;;;;;;;23.44;49.84;95053.69;5092049;28;20563;-80
2021/07/07 01:38:34;;;;;;;10.80;7.67;;;;;;;23.22;50.32;95043.38;5069035;28;20198;-78
2021/07/07 01:41:02;;;;;;;8.80;7.47;;;;;;;23.34;50.36;95051.44;5069480;28;20574;-75
2021/07/07 01:43:29;;;;;;;9.80;7.60;;;;;;;23.27;49.97;95047.69;5083318;28;20681;-76
2021/07/07 01:45:56;;;;;;;8.50;7.70;;;;;;;23.11;50.21;95016.28;5078056;28;20195;-76
2021/07/07 01:48:22;;;;;;;11.67;7.87;;;;;;;23.22;50.60;95055.94;5071797;28;20199;-75
2021/07/07 01:50:49;;;;;;;8.10;7.30;;;;;;;23.13;50.46;95035.44;5088389;28;20238;-74
2021/07/07 01:53:16;;;;;;;10.07;7.00;;;;;;;23.22;50.41;95058.63;5070837;28;20191;-76
2021/07/07 01:55:43;;;;;;;8.83;7.13;;;;;;;23.20;50.85;95060.84;5086877;28;20229;-72
2021/07/07 01:58:10;;;;;;;10.17;7.80;;;;;;;23.16;51.31;95070.66;5071539;28;20303;-74
2021/07/07 02:00:37;;;;;;;9.90;7.67;;;;;;;23.04;50.68;95066.81;5085761;28;20267;-72
2021/07/07 02:03:04;;;;;;;9.93;7.47;;;;;;;22.87;51.40;95064.31;5091677;28;20222;-74
2021/07/07 02:05:36;;;;;;;7.83;7.03;;;;;;;22.87;51.62;95061.63;5078852;28;20196;-72
2021/07/07 02:08:06;;;;;;;7.40;6.67;;;;;;;22.96;51.11;95067.69;5068362;28;20606;-75
2021/07/07 02:10:34;;;;;;;11.10;6.90;;;;;;;22.95;51.02;95071.47;5082509;28;20191;-76
2021/07/07 02:13:04;;;;;;;11.50;7.67;;;;;;;23.01;50.46;95074.69;5068421;28;20207;-75
2021/07/07 02:15:33;;;;;;;7.67;6.77;;;;;;;22.72;51.09;95067.56;5071856;28;20192;-73
2021/07/07 02:18:03;;;;;;;9.93;7.23;;;;;;;22.87;50.80;95091.03;5077858;28;20513;-73
2021/07/07 02:20:34;;;;;;;7.00;6.40;;;;;;;22.67;50.65;95085.69;5085119;28;20293;-75
2021/07/07 02:23:01;;;;;;;9.40;6.50;;;;;;;22.63;50.90;95098.91;5091474;28;20225;-73
2021/07/07 02:25:31;;;;;;;7.63;6.93;;;;;;;22.57;50.50;95097.53;5090699;28;20670;-75
2021/07/07 02:27:58;;;;;;;9.17;6.60;;;;;;;22.64;50.59;95097.81;5091149;28;20187;-74
2021/07/07 02:30:31;;;;;;;7.77;6.70;;;;;;;22.62;50.45;95100.03;5091582;28;20630;-75
2021/07/07 02:32:59;;;;;;;7.60;6.90;;;;;;;22.60;50.99;95102.25;5090923;28;20215;-76
2021/07/07 02:35:29;;;;;;;9.20;7.20;;;;;;;22.48;51.27;95104.78;5089955;28;20195;-75
2021/07/07 02:37:57;;;;;;;7.27;6.67;;;;;;;22.52;51.40;95100.38;5062263;28;20204;-75
2021/07/07 02:40:26;;;;;;;7.63;6.60;;;;;;;22.48;50.69;95083.44;5085896;28;20567;-75
2021/07/07 02:42:53;;;;;;;14.73;7.37;;;;;;;22.38;51.49;95110.53;5081756;28;20226;-75
2021/07/07 02:45:22;;;;;;;8.97;7.20;;;;;;;22.27;51.17;95104.00;5074037;28;20207;-74
2021/07/07 02:47:49;;;;;;;7.70;6.80;;;;;;;22.19;51.50;95102.16;5086048;28;20265;-75
2021/07/07 02:50:19;;;;;;;9.20;7.63;;;;;;;22.05;51.81;95107.72;5070899;28;20199;-76
2021/07/07 02:52:49;;;;;;;10.20;7.07;;;;;;;22.25;51.62;95114.22;5090693;28;20201;-73
2021/07/07 02:55:19;;;;;;;8.23;7.43;;;;;;;22.40;51.30;95108.31;5078269;28;20224;-75
2021/07/07 02:58:05;;;;;;;10.10;7.40;;;;;;;22.48;51.70;95109.38;5090294;28;20199;-75
2021/07/07 03:00:47;;;;;;;9.80;7.37;;;;;;;22.54;51.44;95106.19;5090885;28;20641;-79
2021/07/07 03:03:15;;;;;;;9.40;7.70;;;;;;;22.51;51.88;95109.50;5090725;28;20228;-73
2021/07/07 03:05:49;;;;;;;8.70;6.90;;;;;;;22.50;51.82;95102.59;5076472;28;21075;-74
2021/07/07 03:08:22;;;;;;;12.80;8.07;;;;;;;22.58;51.14;95107.13;5074152;28;20847;-78
2021/07/07 03:10:50;;;;;;;9.27;7.43;;;;;;;22.54;51.32;95103.50;5080635;28;20944;-76
2021/07/07 03:13:19;;;;;;;7.97;7.17;;;;;;;22.51;51.62;95104.16;5081842;28;20199;-76
2021/07/07 03:15:48;;;;;;;8.80;7.33;;;;;;;22.61;51.64;95109.13;5073950;28;20195;-75
2021/07/07 03:18:16;;;;;;;9.17;7.23;;;;;;;22.56;52.02;95105.88;5073539;28;20205;-75
2021/07/07 03:20:46;;;;;;;8.97;7.10;;;;;;;22.48;51.79;95112.81;5089961;28;20199;-73
2021/07/07 03:23:15;;;;;;;10.97;7.77;;;;;;;22.62;51.55;95104.59;5090148;28;20226;-76
2021/07/07 03:25:41;;;;;;;12.47;7.77;;;;;;;22.51;52.21;95114.06;5089867;28;20195;-74
2021/07/07 03:28:08;;;;;;;9.73;7.97;;;;;;;22.51;52.33;95114.06;5090473;28;20248;-76
2021/07/07 03:30:36;;;;;;;8.20;7.37;;;;;;;22.54;52.27;95108.06;5090339;28;20188;-75
2021/07/07 03:33:03;;;;;;;8.60;7.67;;;;;;;22.63;51.80;95112.25;5076203;28;20223;-74
2021/07/07 03:35:31;;;;;;;11.57;8.03;;;;;;;22.59;51.91;95119.34;5089597;28;20195;-75
2021/07/07 03:37:58;;;;;;;9.03;7.43;;;;;;;22.71;51.24;95114.09;5080541;28;20269;-74
2021/07/07 03:40:27;;;;;;;9.27;7.90;;;;;;;22.66;50.95;95121.53;5085262;28;20209;-74
2021/07/07 03:42:54;;;;;;;10.90;7.77;;;;;;;22.75;50.52;95125.72;5081953;28;20259;-74
2021/07/07 03:45:21;;;;;;;9.57;7.93;;;;;;;22.86;50.60;95118.84;5083767;28;20194;-74
2021/07/07 03:47:48;;;;;;;13.60;8.37;;;;;;;22.90;50.30;95117.09;5090182;28;20195;-76
2021/07/07 03:50:17;;;;;;;12.27;8.07;;;;;;;22.72;50.64;95121.00;5089520;28;20298;-73
2021/07/07 03:52:46;;;;;;;9.77;8.00;;;;;;;22.80;50.42;95133.53;5084751;28;20200;-75
2021/07/07 03:55:15;;;;;;;9.63;7.93;;;;;;;22.93;50.32;95132.47;5081251;28;20237;-74
2021/07/07 03:57:42;;;;;;;12.63;7.77;;;;;;;22.65;51.12;95131.44;5075391;28;20205;-75
2021/07/07 04:00:12;;;;;;;9.27;8.30;;;;;;;22.73;51.86;95137.81;5085022;28;20198;-78
2021/07/07 04:02:40;;;;;;;10.00;8.07;;;;;;;22.83;51.76;95130.19;5069693;28;20303;-74
2021/07/07 04:05:09;;;;;;;12.20;7.77;;;;;;;23.01;51.87;95133.50;5068012;28;20195;-75
2021/07/07 04:07:36;;;;;;;9.63;8.23;;;;;;;23.11;51.66;95139.25;5070871;28;20264;-75
2021/07/07 04:10:05;;;;;;;12.00;8.50;;;;;;;23.14;51.56;95143.13;5069796;28;20685;-74
2021/07/07 04:12:33;;;;;;;8.97;7.60;;;;;;;23.01;51.66;95138.84;5082448;28;20204;-69
2021/07/07 04:15:00;;;;;;;15.13;9.17;;;;;;;23.10;51.72;95143.00;5073314;28;20196;-67
2021/07/07 04:17:27;;;;;;;16.03;8.83;;;;;;;23.14;52.07;95138.56;5073054;28;20203;-68
2021/07/07 04:19:54;;;;;;;15.13;9.20;;;;;;;23.12;51.49;95130.09;5074091;28;20207;-69
2021/07/07 04:22:21;;;;;;;16.67;10.17;;;;;;;23.07;52.23;95135.66;5077948;28;20230;-68
2021/07/07 04:24:48;;;;;;;21.20;10.93;;;;;;;23.19;51.92;95145.63;5083796;28;20195;-69
2021/07/07 04:27:15;;;;;;;18.50;10.77;;;;;;;23.07;52.13;95146.34;5081646;28;20192;-70
2021/07/07 04:29:41;;;;;;;17.17;9.90;;;;;;;23.14;51.79;95143.94;5086569;28;20187;-72
2021/07/07 04:32:09;;;;;;;17.27;10.23;;;;;;;23.19;52.15;95147.50;5089399;28;20372;-70
2021/07/07 04:34:36;;;;;;;14.77;10.23;;;;;;;23.17;52.09;95156.63;5083940;28;20199;-72
2021/07/07 04:37:03;;;;;;;11.67;10.47;;;;;;;23.27;52.36;95152.78;5082460;28;20198;-71
2021/07/07 04:39:31;;;;;;;12.30;9.67;;;;;;;23.38;51.78;95147.81;5082669;28;20326;-70
2021/07/07 04:41:58;;;;;;;20.43;9.87;;;;;;;23.33;51.55;95150.72;5080981;28;20761;-70
2021/07/07 04:44:25;;;;;;;16.73;9.57;;;;;;;23.42;51.30;95148.72;5084896;28;20682;-72
2021/07/07 04:46:52;;;;;;;13.90;8.93;;;;;;;23.38;51.24;95151.28;5082507;28;20657;-70
2021/07/07 04:49:19;;;;;;;16.13;9.53;;;;;;;23.23;51.73;95151.09;5076770;28;20206;-70
2021/07/07 04:51:46;;;;;;;14.43;10.10;;;;;;;23.32;51.67;95170.56;5076100;28;20223;-70
2021/07/07 04:54:13;;;;;;;53.20;47.90;;;;;;;23.33;51.60;95166.75;5082256;28;20191;-70
2021/07/07 04:56:40;;;;;;;67.00;50.37;;;;;;;23.43;51.54;95161.00;5076466;28;20307;-70
2021/07/07 04:59:07;;;;;;;20.50;11.47;;;;;;;23.47;51.56;95161.88;5078803;28;20195;-69
2021/07/07 05:01:36;;;;;;;18.33;10.73;;;;;;;23.46;51.09;95165.69;5077804;28;20192;-69
2021/07/07 05:04:04;;;;;;;16.23;11.73;;;;;;;23.45;51.07;95166.81;5075713;28;20231;-70
2021/07/07 05:06:32;;;;;;;18.27;10.23;;;;;;;23.48;51.03;95160.78;5075621;28;20248;-70
2021/07/07 05:08:58;;;;;;;17.77;10.30;;;;;;;23.59;51.26;95169.97;5083084;28;20203;-69
2021/07/07 05:11:25;;;;;;;15.70;10.90;;;;;;;23.76;50.55;95169.78;5082414;28;20545;-70
2021/07/07 05:13:52;;;;;;;19.53;17.60;;;;;;;23.60;51.76;95166.16;5082910;28;20219;-70
2021/07/07 05:16:19;;;;;;;58.07;51.77;;;;;;;23.88;51.48;95167.13;5082956;28;20203;-70
2021/07/07 05:18:46;;;;;;;21.23;15.73;;;;;;;23.91;51.60;95166.47;5078651;28;20577;-69
2021/07/07 05:21:13;;;;;;;18.87;12.47;;;;;;;23.98;50.96;95166.69;5082801;28;20804;-70
2021/07/07 05:23:40;;;;;;;16.20;10.93;;;;;;;23.72;51.18;95168.91;5079685;28;20340;-70
2021/07/07 05:26:07;;;;;;;19.27;12.30;;;;;;;23.69;51.49;95166.84;5084274;28;20207;-67
2021/07/07 05:28:34;;;;;;;15.13;10.73;;;;;;;23.82;51.55;95157.75;5084122;28;20183;-68
2021/07/07 05:31:05;;;;;;;17.73;12.00;;;;;;;24.09;50.93;95170.53;5083369;28;20217;-67
2021/07/07 05:33:35;;;;;;;16.63;11.67;;;;;;;24.10;50.27;95172.09;5075474;28;20274;-68
2021/07/07 05:36:04;;;;;;;20.23;12.70;;;;;;;24.07;50.34;95170.09;5084748;28;20199;-65
2021/07/07 05:38:31;;;;;;;18.13;11.33;;;;;;;24.18;50.76;95160.50;5071034;28;20728;-69
2021/07/07 05:40:59;;;;;;;19.73;11.57;;;;;;;24.34;50.82;95171.34;5084322;28;20192;-66
2021/07/07 05:43:27;;;;;;;22.93;11.63;;;;;;;24.09;51.39;95167.84;5070650;28;20274;-66
2021/07/07 05:45:57;;;;;;;18.27;11.57;;;;;;;24.51;50.78;95171.88;5074911;28;20195;-67
2021/07/07 05:48:25;;;;;;;18.60;11.90;;;;;;;24.41;50.99;95175.03;5090903;28;20347;-66
2021/07/07 05:50:53;;;;;;;24.37;11.80;;;;;;;24.57;50.64;95181.25;5090102;28;20199;-65
2021/07/07 05:53:20;;;;;;;17.57;13.40;;;;;;;24.68;49.69;95179.69;5092391;28;20199;-67
2021/07/07 05:55:47;;;;;;;22.47;12.27;;;;;;;24.57;49.83;95183.16;5090798;28;20297;-66
2021/07/07 05:58:14;;;;;;;17.93;12.27;;;;;;;24.63;49.60;95177.25;5092012;28;20192;-65
2021/07/07 06:00:41;;;;;;;15.40;12.47;;;;;;;24.56;48.80;95179.69;5090803;28;20210;-66
2021/07/07 06:03:09;;;;;;;19.17;13.40;;;;;;;24.56;48.37;95179.69;5071239;28;20219;-65
2021/07/07 06:05:36;;;;;;;19.13;12.60;;;;;;;24.60;49.79;95183.25;5084097;28;20208;-66
2021/07/07 06:08:04;;;;;;;18.37;13.10;;;;;;;24.43;49.45;95180.84;5091512;28;20207;-66
2021/07/07 06:10:31;;;;;;;14.97;12.93;;;;;;;24.90;48.65;95181.91;5091158;28;20203;-66
2021/07/07 06:12:58;;;;;;;18.20;11.93;;;;;;;24.82;48.10;95188.19;5077262;28;20281;-67
2021/07/07 06:15:25;;;;;;;16.40;13.40;;;;;;;25.01;47.13;95179.53;5081363;28;20608;-65
2021/07/07 06:17:53;;;;;;;19.33;13.20;;;;;;;24.85;47.83;95184.06;5073259;28;20211;-66
2021/07/07 06:20:22;;;;;;;23.57;13.63;;;;;;;24.96;47.63;95185.91;5091331;28;20653;-66
2021/07/07 06:22:48;;;;;;;21.10;12.87;;;;;;;25.09;48.12;95183.97;5091278;28;20246;-66
2021/07/07 06:25:16;;;;;;;21.57;11.37;;;;;;;25.30;48.79;95189.16;5090848;28;20669;-67
2021/07/07 06:27:43;;;;;;;16.33;12.20;;;;;;;25.44;48.96;95186.91;5091239;28;20244;-66
2021/07/07 06:30:14;;;;;;;23.13;13.97;;;;;;;25.28;48.80;95183.38;5090652;28;20665;-67
2021/07/07 06:32:43;;;;;;;18.07;13.60;;;;;;;25.23;49.04;95194.34;5090521;28;20288;-67
2021/07/07 06:35:11;;;;;;;18.80;13.00;;;;;;;25.18;49.03;95186.53;5090707;28;20306;-65
2021/07/07 06:37:38;;;;;;;20.60;12.53;;;;;;;25.41;47.96;95184.91;5090884;28;20583;-66
2021/07/07 06:40:06;;;;;;;21.47;14.83;;;;;;;25.32;46.63;95186.94;5088657;28;20210;-67
2021/07/07 06:42:33;;;;;;;16.93;12.77;;;;;;;25.50;46.89;95178.28;5071215;28;20614;-67
2021/07/07 06:45:01;;;;;;;16.47;13.63;;;;;;;25.63;47.55;95181.69;5082155;28;20327;-66
2021/07/07 06:47:28;;;;;;;17.30;12.47;;;;;;;25.98;46.71;95179.94;5086647;28;20643;-66
2021/07/07 06:49:55;;;;;;;19.13;11.83;;;;;;;25.84;47.96;95176.88;5080143;28;20198;-65
2021/07/07 06:52:22;;;;;;;17.47;11.97;;;;;;;25.93;47.69;95177.47;5088994;28;20286;-66
2021/07/07 06:54:49;;;;;;;17.50;12.73;;;;;;;26.25;46.33;95179.09;5078482;28;20198;-66
2021/07/07 06:57:16;;;;;;;16.80;12.67;;;;;;;26.28;46.92;95175.72;5090318;28;20202;-66
2021/07/07 06:59:43;;;;;;;21.10;12.00;;;;;;;26.30;46.66;95173.47;5076936;28;20187;-65
2021/07/07 07:02:10;;;;;;;16.47;12.47;;;;;;;26.45;44.84;95164.63;5078243;28;20212;-66
2021/07/07 07:04:37;;;;;;;21.93;12.27;;;;;;;26.37;45.81;95173.63;5084081;28;20219;-65
2021/07/07 07:07:04;;;;;;;18.47;12.70;;;;;;;26.42;45.13;95169.91;5082172;28;20508;-65
2021/07/07 07:09:31;;;;;;;28.67;12.30;;;;;;;26.79;44.92;95169.25;5090843;28;20244;-67
2021/07/07 07:11:58;;;;;;;16.37;13.30;;;;;;;26.74;44.84;95172.22;5081659;28;20562;-65
2021/07/07 07:14:25;;;;;;;18.20;13.17;;;;;;;26.42;44.66;95170.66;5085001;28;20195;-67
2021/07/07 07:16:52;;;;;;;16.13;12.40;;;;;;;26.95;43.71;95172.66;5079491;28;20210;-67
2021/07/07 07:19:19;;;;;;;17.50;12.20;;;;;;;26.91;44.17;95177.22;5091579;28;20298;-68
2021/07/07 07:21:46;;;;;;;17.07;11.87;;;;;;;26.99;44.22;95175.44;5091982;28;20665;-67
2021/07/07 07:24:14;;;;;;;25.50;18.53;;;;;;;27.20;43.88;95175.13;5091155;28;20222;-67
2021/07/07 07:26:41;;;;;;;19.47;12.03;;;;;;;26.97;43.33;95161.56;5091582;28;20199;-69
2021/07/07 07:29:08;;;;;;;18.30;15.70;;;;;;;27.17;42.45;95178.53;5090367;28;20226;-66
2021/07/07 07:31:35;;;;;;;13.53;12.03;;;;;;;27.29;42.42;95181.06;5090325;28;20246;-67
2021/07/07 07:34:02;;;;;;;16.03;11.90;;;;;;;27.07;41.81;95179.06;5090280;28;20203;-68
2021/07/07 07:36:29;;;;;;;13.80;12.27;;;;;;;26.98;42.08;95172.00;5090120;28;20221;-66
2021/07/07 07:39:03;;;;;;;15.70;12.47;;;;;;;26.91;42.29;95174.53;5086946;28;20196;-69
2021/07/07 07:41:32;;;;;;;17.20;11.63;;;;;;;26.90;42.32;95164.09;5070209;28;20192;-66
2021/07/07 07:43:59;;;;;;;16.40;10.93;;;;;;;27.27;42.81;95175.25;5072516;28;20211;-68
2021/07/07 07:46:28;;;;;;;15.77;11.10;;;;;;;27.50;41.70;95173.47;5089883;28;20187;-66
2021/07/07 07:48:56;;;;;;;14.43;11.17;;;;;;;27.60;42.50;95170.19;5090486;28;20607;-70
2021/07/07 07:51:24;;;;;;;16.73;11.33;;;;;;;27.85;42.06;95166.81;5080993;28;20200;-69
2021/07/07 07:53:51;;;;;;;23.80;18.47;;;;;;;28.11;40.75;95163.44;5082299;28;20293;-69
2021/07/07 07:56:18;;;;;;;101.03;91.03;;;;;;;28.31;40.69;95173.00;5089471;28;20187;-67
2021/07/07 07:58:46;;;;;;;10.07;8.80;;;;;;;28.09;39.63;95176.47;5077359;28;20203;-67
2021/07/07 08:01:13;;;;;;;18.30;8.80;;;;;;;27.83;39.87;95168.28;5088142;28;20195;-68
2021/07/07 08:03:40;;;;;;;14.10;9.43;;;;;;;28.20;39.36;95171.25;5089519;28;20292;-69
2021/07/07 08:06:07;;;;;;;13.77;9.43;;;;;;;28.32;39.20;95169.16;5088648;28;20202;-67
2021/07/07 08:08:34;;;;;;;11.87;8.90;;;;;;;28.47;38.33;95173.63;5089894;28;20234;-66
2021/07/07 08:11:02;;;;;;;14.63;8.90;;;;;;;28.69;40.02;95174.75;5088689;28;20195;-67
2021/07/07 08:13:29;;;;;;;13.17;9.30;;;;;;;28.94;38.68;95167.81;5089712;28;20204;-67
2021/07/07 08:15:56;;;;;;;10.63;9.13;;;;;;;29.00;38.03;95160.94;5088687;28;20199;-71
2021/07/07 08:18:22;;;;;;;14.10;9.73;;;;;;;29.23;39.12;95177.88;5089721;28;20619;-67
2021/07/07 08:20:50;;;;;;;14.40;9.10;;;;;;;28.94;37.69;95176.69;5088861;28;20294;-69
2021/07/07 08:23:17;;;;;;;11.07;8.63;;;;;;;29.13;37.15;95177.72;5089789;28;20211;-67
2021/07/07 08:25:43;;;;;;;13.43;8.57;;;;;;;29.30;38.01;95177.19;5088658;28;20198;-68
2021/07/07 08:28:12;;;;;;;11.77;9.73;;;;;;;29.49;39.13;95182.44;5090027;28;20871;-66
2021/07/07 08:30:40;;;;;;;12.10;9.03;;;;;;;29.44;38.34;95180.03;5088902;28;20195;-68
2021/07/07 08:33:07;;;;;;;12.97;8.73;;;;;;;29.42;37.08;95185.03;5089251;28;20223;-67
2021/07/07 08:35:37;;;;;;;10.73;8.07;;;;;;;29.54;36.01;95174.75;5089104;28;20637;-67
2021/07/07 08:38:05;;;;;;;11.63;8.50;;;;;;;29.29;35.76;95184.50;5090245;28;20199;-66
2021/07/07 08:40:33;;;;;;;10.70;7.07;;;;;;;29.22;35.61;95189.03;5089438;28;20222;-69
2021/07/07 08:43:00;;;;;;;12.93;9.23;;;;;;;29.11;35.11;95177.28;5089659;28;20187;-68
2021/07/07 08:45:27;;;;;;;14.23;8.43;;;;;;;29.08;35.51;95184.19;5088301;28;20206;-68
2021/07/07 08:47:54;;;;;;;9.57;7.07;;;;;;;29.20;34.50;95192.09;5089367;28;20198;-68
2021/07/07 08:50:26;;;;;;;7.73;7.00;;;;;;;29.10;35.04;95186.53;5088726;28;20532;-67
2021/07/07 08:52:54;;;;;;;8.47;6.63;;;;;;;29.66;34.11;95177.22;5075155;28;20191;-68
2021/07/07 08:55:22;;;;;;;12.73;9.30;;;;;;;29.78;34.70;95173.53;5088432;28;20210;-66
2021/07/07 08:57:50;;;;;;;15.13;11.07;;;;;;;30.04;34.56;95176.09;5083910;28;20195;-67
2021/07/07 09:00:43;;;;;;;72.43;58.13;;;;;;;30.06;34.39;95184.59;5067984;28;20192;-67
2021/07/07 09:03:12;;;;;;;13.93;6.80;;;;;;;30.11;35.88;95170.75;5075637;28;20195;-68
2021/07/07 09:05:54;;;;;;;9.93;7.50;;;;;;;30.26;35.29;95177.88;5092206;28;20573;-68
2021/07/07 09:08:33;;;;;;;8.93;6.03;;;;;;;30.19;34.91;95187.81;5080516;28;20187;-69
2021/07/07 09:11:20;;;;;;;7.17;6.57;;;;;;;30.15;33.74;95171.56;5077870;28;20253;-68
2021/07/07 09:14:15;;;;;;;7.03;6.27;;;;;;;30.55;34.11;95179.66;5092460;28;20278;-67
2021/07/07 09:16:58;;;;;;;9.63;6.30;;;;;;;30.48;33.78;95179.59;5090778;28;20665;-68
2021/07/07 09:19:28;;;;;;;8.97;6.77;;;;;;;30.63;33.78;95183.97;5092177;28;20203;-67
2021/07/07 09:22:05;;;;;;;8.43;6.93;;;;;;;30.59;34.48;95172.34;5093217;28;20274;-68
2021/07/07 09:24:34;;;;;;;8.83;6.27;;;;;;;30.60;32.64;95173.88;5092144;28;20226;-68
2021/07/07 09:27:02;;;;;;;7.93;5.97;;;;;;;30.88;33.58;95171.41;5092418;28;20230;-66
2021/07/07 09:29:31;;;;;;;8.73;6.30;;;;;;;30.60;32.55;95176.59;5091975;28;20215;-67
2021/07/07 09:31:58;;;;;;;7.17;6.47;;;;;;;30.66;31.96;95169.69;5092424;28;20227;-67
2021/07/07 09:34:25;;;;;;;11.27;6.30;;;;;;;31.07;33.77;95177.69;5088376;28;20978;-67
2021/07/07 09:36:53;;;;;;;17.70;7.03;;;;;;;31.19;32.71;95155.69;5081376;28;20246;-67
2021/07/07 09:39:21;;;;;;;8.17;6.00;;;;;;;31.22;33.03;95163.09;5071466;28;20207;-68
2021/07/07 09:41:51;;;;;;;9.63;5.80;;;;;;;31.17;32.96;95168.88;5085065;28;20192;-68
2021/07/07 09:44:19;;;;;;;8.70;6.40;;;;;;;31.27;32.99;95176.25;5091120;28;20223;-68
2021/07/07 09:46:46;;;;;;;9.10;6.67;;;;;;;31.58;33.10;95170.22;5092543;28;20253;-68
2021/07/07 09:49:14;;;;;;;7.30;6.13;;;;;;;31.91;32.85;95164.53;5091763;28;20191;-69
2021/07/07 09:51:49;;;;;;;7.87;6.20;;;;;;;31.74;32.61;95168.72;5092278;28;20228;-68
2021/07/07 09:54:19;;;;;;;7.63;6.13;;;;;;;31.79;31.26;95160.22;5077630;28;20190;-68
2021/07/07 09:56:46;;;;;;;10.47;5.87;;;;;;;31.60;31.96;95173.31;5092443;28;20234;-67
2021/07/07 09:59:13;;;;;;;7.50;6.20;;;;;;;31.65;30.68;95164.81;5089551;28;20204;-67
2021/07/07 10:01:40;;;;;;;7.10;6.07;;;;;;;31.73;31.71;95166.41;5081680;28;20187;-67
2021/07/07 10:04:11;;;;;;;7.07;6.10;;;;;;;31.73;31.50;95161.72;5092086;28;20223;-69
2021/07/07 10:06:38;;;;;;;11.07;6.13;;;;;;;31.92;31.59;95166.06;5080573;28;20240;-68
2021/07/07 10:09:05;;;;;;;10.07;6.20;;;;;;;31.98;31.07;95167.25;5095385;28;20282;-70
2021/07/07 10:11:33;;;;;;;11.93;6.10;;;;;;;31.95;30.34;95161.84;5096028;28;20195;-67
2021/07/07 10:14:01;;;;;;;6.80;5.50;;;;;;;31.96;32.79;95156.03;5091868;28;20199;-70
2021/07/07 10:16:30;;;;;;;8.23;6.07;;;;;;;32.17;30.76;95164.16;5091390;28;20831;-67
2021/07/07 10:18:57;;;;;;;10.13;6.23;;;;;;;32.18;31.99;95154.88;5091051;28;20653;-68
2021/07/07 10:21:24;;;;;;;7.47;5.80;;;;;;;32.20;30.49;95158.00;5090950;28;20195;-69
2021/07/07 10:23:52;;;;;;;7.43;6.30;;;;;;;32.48;30.24;95160.72;5091641;28;20219;-66
2021/07/07 10:26:21;;;;;;;18.07;12.40;;;;;;;32.61;30.73;95161.88;5090750;28;20191;-67
2021/07/07 10:28:49;;;;;;;18.47;16.80;;;;;;;32.58;29.49;95156.47;5091382;28;20313;-67
2021/07/07 10:31:16;;;;;;;23.63;21.20;;;;;;;32.65;29.90;95146.38;5089935;28;20239;-66
2021/07/07 10:33:43;;;;;;;9.40;7.10;;;;;;;32.52;30.36;95147.94;5079682;28;20337;-71
2021/07/07 10:36:22;;;;;;;6.07;5.50;;;;;;;32.69;29.42;95157.22;5084761;28;20237;-69
2021/07/07 10:38:51;;;;;;;12.23;9.53;;;;;;;33.04;29.17;95159.13;5071121;28;20684;-68
2021/07/07 10:41:47;;;;;;;7.27;6.57;;;;;;;33.13;29.50;95164.91;5079196;28;20546;-67
2021/07/07 10:44:23;;;;;;;13.00;9.83;;;;;;;33.16;28.99;95153.25;5090074;28;20221;-68
2021/07/07 10:46:57;;;;;;;6.00;5.40;;;;;;;32.99;28.78;95145.97;5090949;28;20190;-66
2021/07/07 10:49:30;;;;;;;8.23;6.33;;;;;;;33.40;29.22;95146.97;5090470;28;21079;-68
2021/07/07 10:51:59;;;;;;;7.23;5.97;;;;;;;33.45;28.64;95150.09;5091186;28;20202;-69
2021/07/07 10:54:30;;;;;;;9.13;5.60;;;;;;;33.56;28.67;95150.03;5070749;28;20685;-68
2021/07/07 10:56:58;;;;;;;8.67;5.83;;;;;;;33.46;28.61;95150.88;5082378;28;20202;-70
2021/07/07 10:59:45;;;;;;;7.17;5.47;;;;;;;33.51;28.62;95147.72;5084583;28;21119;-69
2021/07/07 11:02:14;;;;;;;12.07;7.27;;;;;;;33.82;29.72;95149.50;5083849;28;20206;-70
2021/07/07 11:04:44;;;;;;;8.70;6.77;;;;;;;33.67;28.49;95146.09;5076023;28;20207;-69
2021/07/07 11:07:35;;;;;;;6.47;5.67;;;;;;;33.69;29.05;95156.56;5090814;28;20579;-68
2021/07/07 11:10:19;;;;;;;7.13;5.53;;;;;;;33.93;29.16;95146.72;5090221;28;20211;-66
2021/07/07 11:12:49;;;;;;;6.30;5.70;;;;;;;34.25;27.52;95144.59;5075899;28;20192;-70
2021/07/07 11:15:19;;;;;;;8.23;6.00;;;;;;;33.89;27.30;95152.19;5090068;28;20195;-68
2021/07/07 11:17:47;;;;;;;6.00;5.40;;;;;;;33.96;27.38;95141.28;5090595;28;20213;-68
2021/07/07 11:20:22;;;;;;;7.13;6.33;;;;;;;33.61;27.60;95142.22;5090453;28;20548;-68
2021/07/07 11:23:10;;;;;;;8.13;6.03;;;;;;;33.72;27.93;95136.75;5075921;28;20208;-68
2021/07/07 11:25:40;;;;;;;7.80;5.57;;;;;;;33.45;27.01;95139.22;5090231;28;20753;-68
2021/07/07 11:28:11;;;;;;;6.13;5.60;;;;;;;32.81;27.85;95137.81;5090241;28;20687;-67
2021/07/07 11:30:38;;;;;;;7.63;5.83;;;;;;;32.90;29.00;95129.28;5089698;28;20696;-68
2021/07/07 11:33:06;;;;;;;6.27;5.73;;;;;;;33.34;28.72;95124.88;5090177;28;20261;-67